Time;durP1;ratioP1;P1;durP2;ratioP2;P2;SDS_P1;SDS_P2;PMS_P1;PMS_P2;Temp;Humidity;BMP_temperature;BMP_pressure;BME280_temperature;BME280_humidity;BME280_pressure;Samples;Min_cycle;Max_cycle;Signal;HPM_P1;HPM_P2
2022/06/08 00:01:37;;;;;;;1.40;1.13;;;13.00;99.90;;;;;;4994942;28;20095;-78
2022/06/08 00:04:04;;;;;;;2.30;1.13;;;13.00;99.90;;;;;;5011122;28;20041;-77
2022/06/08 00:06:30;;;;;;;1.25;1.00;;;13.00;99.90;;;;;;4994024;28;20492;-77
2022/06/08 00:08:56;;;;;;;1.10;1.00;;;12.90;99.90;;;;;;5007256;28;20028;-77
2022/06/08 00:11:22;;;;;;;2.08;0.98;;;12.90;99.90;;;;;;5016063;28;20033;-77
2022/06/08 00:13:48;;;;;;;1.15;1.05;;;12.90;99.90;;;;;;5007465;28;20073;-78
2022/06/08 00:16:14;;;;;;;1.40;1.10;;;12.90;99.90;;;;;;5014298;28;20571;-78
2022/06/08 00:18:41;;;;;;;1.20;1.05;;;12.80;99.90;;;;;;4996931;28;20072;-79
2022/06/08 00:21:08;;;;;;;2.45;0.95;;;12.80;99.90;;;;;;5011460;28;20045;-78
2022/06/08 00:23:34;;;;;;;2.55;1.20;;;12.80;99.90;;;;;;4993677;28;20039;-78
2022/06/08 00:26:00;;;;;;;1.13;1.02;;;12.70;99.90;;;;;;4999730;28;20035;-78
2022/06/08 00:28:26;;;;;;;0.80;0.80;;;12.70;99.90;;;;;;4993512;28;20041;-78
2022/06/08 00:30:52;;;;;;;1.33;0.90;;;12.70;99.90;;;;;;5006674;28;20042;-78
2022/06/08 00:33:19;;;;;;;0.98;0.88;;;12.80;99.90;;;;;;4991971;28;20444;-78
2022/06/08 00:35:47;;;;;;;0.85;0.85;;;12.80;99.90;;;;;;5000402;28;20079;-78
2022/06/08 00:38:13;;;;;;;1.23;1.13;;;12.70;99.90;;;;;;5013603;28;20113;-79
2022/06/08 00:40:51;;;;;;;1.48;1.30;;;12.70;99.90;;;;;;5024385;28;20029;-78
2022/06/08 00:43:17;;;;;;;1.17;1.00;;;12.60;99.90;;;;;;5019499;28;20021;-78
2022/06/08 00:45:45;;;;;;;1.13;1.05;;;12.70;99.90;;;;;;5012881;28;20392;-78
2022/06/08 00:48:11;;;;;;;1.15;1.08;;;12.70;99.90;;;;;;4990560;28;20034;-78
2022/06/08 00:50:47;;;;;;;2.42;1.40;;;12.80;99.90;;;;;;5012894;28;20029;-78
2022/06/08 00:53:16;;;;;;;1.48;1.13;;;12.70;99.90;;;;;;5011542;28;20029;-78
2022/06/08 00:55:43;;;;;;;1.17;1.08;;;12.60;99.90;;;;;;5002508;28;20084;-78
2022/06/08 00:58:24;;;;;;;1.88;1.00;;;12.60;99.90;;;;;;5003408;28;20036;-78
2022/06/08 01:00:51;;;;;;;1.67;1.30;;;12.50;99.90;;;;;;5011065;28;20026;-78
2022/06/08 01:03:18;;;;;;;1.30;1.20;;;12.50;99.90;;;;;;5010054;28;20033;-78
2022/06/08 01:06:05;;;;;;;1.10;0.90;;;12.50;99.90;;;;;;4994773;28;20029;-78
2022/06/08 01:08:43;;;;;;;1.77;1.67;;;12.50;99.90;;;;;;4992093;28;20183;-78
2022/06/08 01:11:22;;;;;;;1.10;1.00;;;12.40;99.90;;;;;;5003671;28;20036;-78
2022/06/08 01:13:50;;;;;;;1.38;1.15;;;12.40;99.90;;;;;;5009232;28;20116;-77
2022/06/08 01:16:17;;;;;;;1.90;0.95;;;12.40;99.90;;;;;;5026096;28;20129;-78
2022/06/08 01:18:44;;;;;;;1.00;0.90;;;12.30;99.90;;;;;;4996402;28;20034;-78
2022/06/08 01:21:21;;;;;;;1.00;0.90;;;12.30;99.90;;;;;;5017030;28;20081;-78
2022/06/08 01:24:03;;;;;;;0.95;0.95;;;12.30;99.90;;;;;;4993192;28;20413;-78
2022/06/08 01:27:02;;;;;;;0.90;0.90;;;12.40;99.90;;;;;;5000406;28;20112;-78
2022/06/08 01:29:34;;;;;;;1.17;1.08;;;12.40;99.90;;;;;;5006152;28;20036;-78
2022/06/08 01:32:28;;;;;;;1.58;0.98;;;12.40;99.90;;;;;;4991909;28;20512;-78
2022/06/08 01:34:56;;;;;;;0.98;0.98;;;12.40;99.90;;;;;;5010568;28;20018;-78
2022/06/08 01:37:33;;;;;;;1.10;1.10;;;12.40;99.90;;;;;;5014560;28;20565;-78
2022/06/08 01:40:02;;;;;;;1.00;1.00;;;12.40;99.90;;;;;;5001624;28;20026;-78
2022/06/08 01:42:44;;;;;;;1.30;1.20;;;12.50;99.90;;;;;;5030482;28;20064;-78
2022/06/08 01:45:28;;;;;;;1.10;0.98;;;12.50;99.90;;;;;;5004044;28;20134;-78
2022/06/08 01:48:17;;;;;;;1.10;0.97;;;12.50;99.90;;;;;;5010245;28;20516;-78
2022/06/08 01:51:07;;;;;;;1.30;1.02;;;12.50;99.90;;;;;;5005602;28;20783;-77
2022/06/08 01:53:55;;;;;;;1.80;1.10;;;12.40;99.90;;;;;;5020161;28;20038;-78
2022/06/08 01:56:37;;;;;;;1.23;1.10;;;12.40;99.90;;;;;;5010762;28;20113;-78
2022/06/08 01:59:20;;;;;;;1.02;0.98;;;12.40;99.90;;;;;;5005244;28;20131;-78
2022/06/08 02:01:57;;;;;;;1.25;1.02;;;12.50;99.90;;;;;;5020800;28;20115;-78
2022/06/08 02:04:48;;;;;;;1.15;0.95;;;12.40;99.90;;;;;;5008894;28;20026;-78
2022/06/08 02:07:25;;;;;;;1.05;1.05;;;12.40;99.90;;;;;;5017398;28;20041;-78
2022/06/08 02:10:13;;;;;;;1.25;1.15;;;12.40;99.90;;;;;;4997146;28;20033;-78
2022/06/08 02:12:46;;;;;;;1.17;1.10;;;12.30;99.90;;;;;;5003323;28;20035;-78
2022/06/08 02:15:43;;;;;;;1.25;1.15;;;12.30;99.90;;;;;;4998348;28;20102;-78
2022/06/08 02:18:21;;;;;;;1.88;1.17;;;12.30;99.90;;;;;;5004766;28;20030;-78
2022/06/08 02:21:10;;;;;;;2.15;1.20;;;12.30;99.90;;;;;;5018725;28;20486;-77
2022/06/08 02:23:44;;;;;;;0.90;0.90;;;12.30;99.90;;;;;;4997374;28;20053;-78
2022/06/08 02:26:20;;;;;;;1.30;1.20;;;12.30;99.90;;;;;;5017768;28;20032;-77
2022/06/08 02:28:56;;;;;;;2.20;1.23;;;12.30;99.90;;;;;;5023403;28;20061;-79
2022/06/08 02:31:33;;;;;;;1.45;1.35;;;12.30;99.90;;;;;;5002232;28;20088;-77
2022/06/08 02:34:28;;;;;;;1.58;1.30;;;12.20;99.90;;;;;;4994646;28;20026;-77
2022/06/08 02:37:22;;;;;;;1.27;1.17;;;12.20;99.90;;;;;;5019806;28;20033;-77
2022/06/08 02:39:59;;;;;;;1.38;1.27;;;12.20;99.90;;;;;;5013682;28;20017;-77
2022/06/08 02:42:29;;;;;;;1.20;1.10;;;12.20;99.90;;;;;;4996141;28;20062;-76
2022/06/08 02:45:00;;;;;;;1.50;1.40;;;12.10;99.90;;;;;;4992266;28;20057;-78
2022/06/08 02:47:30;;;;;;;0.95;0.95;;;12.10;99.90;;;;;;5011436;28;20018;-76
2022/06/08 02:50:04;;;;;;;1.90;1.15;;;12.10;99.90;;;;;;5019173;28;20034;-76
2022/06/08 02:52:32;;;;;;;1.50;1.25;;;12.10;99.90;;;;;;5025120;28;20153;-77
2022/06/08 02:54:59;;;;;;;1.55;1.33;;;12.10;99.90;;;;;;5008678;28;20093;-76
2022/06/08 02:57:44;;;;;;;1.55;1.10;;;12.00;99.90;;;;;;5028712;28;20484;-76
2022/06/08 03:00:26;;;;;;;2.10;1.25;;;12.00;99.90;;;;;;5008349;28;20025;-76
2022/06/08 03:02:55;;;;;;;1.30;1.20;;;12.00;99.90;;;;;;5019022;28;20026;-77
2022/06/08 03:05:30;;;;;;;3.45;1.30;;;12.00;99.90;;;;;;4995374;28;20037;-77
2022/06/08 03:08:29;;;;;;;1.40;1.30;;;11.90;99.90;;;;;;5017207;28;20030;-77
2022/06/08 03:10:59;;;;;;;1.23;1.13;;;12.00;99.90;;;;;;4996256;28;20522;-76
2022/06/08 03:13:40;;;;;;;1.35;1.05;;;12.00;99.90;;;;;;5028270;28;20036;-78
2022/06/08 03:16:08;;;;;;;2.00;1.30;;;12.00;99.90;;;;;;5004435;28;20034;-77
2022/06/08 03:18:35;;;;;;;1.33;1.23;;;12.00;99.90;;;;;;4991746;28;20034;-77
2022/06/08 03:21:04;;;;;;;1.27;1.20;;;12.00;99.90;;;;;;4998868;28;20030;-77
2022/06/08 03:23:33;;;;;;;1.27;1.15;;;12.10;99.90;;;;;;5009392;28;20516;-77
2022/06/08 03:25:59;;;;;;;1.23;1.13;;;12.10;99.90;;;;;;4996651;28;20032;-76
2022/06/08 03:28:25;;;;;;;1.25;1.15;;;12.10;99.90;;;;;;5012451;28;20117;-76
2022/06/08 03:30:54;;;;;;;1.30;1.20;;;12.20;99.90;;;;;;5007875;28;20029;-77
2022/06/08 03:33:20;;;;;;;1.35;1.15;;;12.30;99.90;;;;;;5000975;28;20515;-77
2022/06/08 03:35:46;;;;;;;1.77;1.67;;;12.30;99.90;;;;;;4999077;28;20029;-77
2022/06/08 03:38:13;;;;;;;2.15;1.77;;;12.40;99.90;;;;;;5030776;28;20573;-77
2022/06/08 03:40:42;;;;;;;1.50;1.27;;;12.40;99.90;;;;;;5022199;28;20030;-76
2022/06/08 03:43:07;;;;;;;1.67;1.58;;;12.50;99.90;;;;;;5007360;28;20057;-76
2022/06/08 03:45:40;;;;;;;1.80;1.60;;;12.60;99.90;;;;;;5005476;28;20034;-76
2022/06/08 03:48:07;;;;;;;1.80;1.70;;;12.60;99.90;;;;;;4999596;28;20034;-76
2022/06/08 03:50:34;;;;;;;1.50;1.40;;;12.60;99.90;;;;;;5005558;28;20030;-76
2022/06/08 03:53:07;;;;;;;1.83;1.45;;;12.60;99.90;;;;;;5010416;28;20053;-76
2022/06/08 03:55:35;;;;;;;1.40;1.30;;;12.60;99.90;;;;;;5008579;28;20044;-78
2022/06/08 03:58:03;;;;;;;1.38;1.27;;;12.70;99.90;;;;;;5018528;28;20037;-76
2022/06/08 04:00:32;;;;;;;1.85;1.35;;;12.70;99.90;;;;;;5028774;28;20041;-77
2022/06/08 04:03:05;;;;;;;2.20;1.83;;;12.80;99.90;;;;;;4989625;28;20382;-76
2022/06/08 04:05:32;;;;;;;1.55;1.45;;;12.90;99.90;;;;;;4986391;28;20645;-76
2022/06/08 04:08:00;;;;;;;1.20;1.10;;;12.90;99.90;;;;;;4996333;28;20022;-76
2022/06/08 04:10:28;;;;;;;2.30;1.73;;;13.00;99.90;;;;;;5019254;28;20127;-76
2022/06/08 04:12:58;;;;;;;1.98;1.48;;;13.00;99.90;;;;;;5009691;28;20399;-77
2022/06/08 04:15:45;;;;;;;2.10;1.90;;;13.20;99.90;;;;;;5011355;28;20037;-76
2022/06/08 04:18:22;;;;;;;1.70;1.60;;;13.20;99.90;;;;;;4990976;28;20505;-76
2022/06/08 04:20:53;;;;;;;1.70;1.60;;;13.30;99.90;;;;;;4978452;28;20030;-77
2022/06/08 04:23:21;;;;;;;2.10;1.88;;;13.50;99.90;;;;;;4983589;28;20499;-76
2022/06/08 04:25:47;;;;;;;2.03;1.92;;;13.60;99.90;;;;;;4994427;28;20030;-76
2022/06/08 04:28:14;;;;;;;3.17;2.10;;;13.60;99.90;;;;;;5008482;28;20049;-76
2022/06/08 04:30:42;;;;;;;2.17;2.00;;;13.60;99.90;;;;;;5013229;28;20113;-76
2022/06/08 04:33:08;;;;;;;2.08;1.88;;;13.60;99.90;;;;;;4987395;28;20038;-78
2022/06/08 04:35:35;;;;;;;2.10;1.90;;;13.60;99.90;;;;;;5021078;28;20148;-77
2022/06/08 04:38:02;;;;;;;1.58;1.48;;;13.60;99.90;;;;;;5013485;28;20037;-76
2022/06/08 04:40:30;;;;;;;2.00;1.80;;;13.70;99.90;;;;;;5010087;28;20044;-76
2022/06/08 04:42:56;;;;;;;1.75;1.52;;;13.70;99.90;;;;;;5009632;28;20396;-77
2022/06/08 04:45:24;;;;;;;1.98;1.40;;;13.80;99.90;;;;;;5007061;28;20026;-76
2022/06/08 04:47:50;;;;;;;9.20;5.28;;;13.80;99.90;;;;;;5009793;28;20030;-76
2022/06/08 04:50:17;;;;;;;28.13;13.82;;;13.90;99.90;;;;;;4992022;28;20030;-76
2022/06/08 04:52:43;;;;;;;25.02;12.15;;;13.90;99.90;;;;;;5004836;28;20034;-76
2022/06/08 04:55:13;;;;;;;21.38;11.95;;;14.00;99.90;;;;;;4989954;28;20093;-77
2022/06/08 04:57:42;;;;;;;19.92;11.65;;;14.00;99.90;;;;;;4988983;28;20050;-77
2022/06/08 05:00:17;;;;;;;15.73;9.45;;;14.10;99.90;;;;;;4992702;28;20377;-76
2022/06/08 05:02:49;;;;;;;15.73;9.40;;;14.20;99.90;;;;;;5009521;28;20029;-76
2022/06/08 05:05:38;;;;;;;13.52;8.20;;;14.30;99.90;;;;;;5008659;28;20160;-76
2022/06/08 05:08:08;;;;;;;18.85;10.52;;;14.50;99.90;;;;;;5008165;28;20037;-78
2022/06/08 05:10:38;;;;;;;12.07;6.18;;;14.60;99.90;;;;;;5006464;28;20033;-77
2022/06/08 05:13:08;;;;;;;7.00;2.20;;;14.80;99.90;;;;;;5012625;28;20036;-77
2022/06/08 05:15:37;;;;;;;2.10;1.30;;;15.00;99.90;;;;;;5028006;28;20064;-76
2022/06/08 05:18:04;;;;;;;1.55;1.25;;;15.00;99.90;;;;;;5011299;28;20026;-76
2022/06/08 05:20:32;;;;;;;1.60;1.50;;;15.10;99.90;;;;;;5019319;28;20041;-76
2022/06/08 05:23:03;;;;;;;0.77;0.75;;;15.10;99.90;;;;;;4992245;28;20033;-77
2022/06/08 05:25:33;;;;;;;0.88;0.85;;;15.10;99.90;;;;;;4994383;28;20030;-77
2022/06/08 05:28:00;;;;;;;1.25;1.10;;;15.10;99.90;;;;;;5021429;28;20464;-76
2022/06/08 05:30:29;;;;;;;1.20;1.10;;;15.10;99.90;;;;;;5005379;28;20038;-76
2022/06/08 05:32:55;;;;;;;1.45;1.00;;;15.10;99.90;;;;;;4998017;28;20096;-77
2022/06/08 05:35:23;;;;;;;1.20;0.90;;;15.10;99.90;;;;;;5022409;28;20038;-76
2022/06/08 05:37:51;;;;;;;0.93;0.90;;;15.10;99.90;;;;;;5001427;28;20031;-77
2022/06/08 05:40:21;;;;;;;1.10;1.00;;;15.20;99.90;;;;;;5007474;28;20030;-76
2022/06/08 05:42:47;;;;;;;1.50;1.40;;;15.40;99.90;;;;;;4997997;28;20026;-77
2022/06/08 05:45:21;;;;;;;1.25;1.00;;;15.80;99.90;;;;;;4999067;28;20026;-77
2022/06/08 05:47:48;;;;;;;1.33;1.10;;;16.20;99.90;;;;;;5010885;28;20034;-77
2022/06/08 05:50:14;;;;;;;1.30;1.00;;;16.80;99.90;;;;;;4989488;28;20027;-77
2022/06/08 05:52:41;;;;;;;1.05;0.95;;;17.60;99.90;;;;;;5008961;28;20114;-79
2022/06/08 05:55:09;;;;;;;1.85;1.02;;;18.30;99.90;;;;;;5012293;28;20022;-77
2022/06/08 05:57:36;;;;;;;1.25;0.95;;;18.90;99.90;;;;;;5007723;28;20105;-77
2022/06/08 06:00:07;;;;;;;1.13;0.63;;;19.20;99.90;;;;;;4993236;28;20031;-76
2022/06/08 06:02:42;;;;;;;0.60;0.60;;;19.30;99.90;;;;;;5010413;28;20037;-77
2022/06/08 06:05:09;;;;;;;1.48;0.68;;;19.30;99.90;;;;;;4997344;28;20021;-77
2022/06/08 06:07:36;;;;;;;2.83;1.35;;;19.20;99.90;;;;;;4991843;28;20109;-78
2022/06/08 06:10:21;;;;;;;1.10;0.90;;;19.00;99.90;;;;;;4989524;28;20027;-77
2022/06/08 06:12:48;;;;;;;1.27;0.98;;;18.80;99.90;;;;;;5017834;28;20038;-77
2022/06/08 06:15:15;;;;;;;1.05;0.95;;;18.80;99.90;;;;;;4997102;28;20041;-77
2022/06/08 06:17:44;;;;;;;1.60;0.90;;;18.90;99.90;;;;;;5000607;28;20029;-76
2022/06/08 06:20:11;;;;;;;2.15;1.00;;;19.20;99.90;;;;;;5012693;28;20053;-76
2022/06/08 06:23:00;;;;;;;1.27;1.13;;;19.50;99.90;;;;;;5003631;28;20034;-77
2022/06/08 06:26:04;;;;;;;2.17;1.00;;;19.90;99.90;;;;;;4971033;28;20042;-79
2022/06/08 06:28:48;;;;;;;3.80;0.90;;;20.50;99.90;;;;;;4968648;28;20077;-77
2022/06/08 06:31:56;;;;;;;1.42;1.00;;;21.10;99.90;;;;;;5020341;28;20042;-78
2022/06/08 06:34:25;;;;;;;0.98;0.80;;;21.70;99.90;;;;;;5011454;28;20042;-77
2022/06/08 06:36:53;;;;;;;1.58;1.08;;;21.80;99.90;;;;;;4992914;28;20048;-79
2022/06/08 06:39:22;;;;;;;3.13;0.85;;;21.70;99.90;;;;;;5009951;28;20061;-78
2022/06/08 06:41:51;;;;;;;0.90;0.80;;;21.70;99.90;;;;;;5005379;28;20038;-79
2022/06/08 06:44:22;;;;;;;1.70;1.05;;;21.40;99.90;;;;;;4991656;28;20481;-78
2022/06/08 06:46:59;;;;;;;1.00;0.80;;;21.30;99.90;;;;;;5002984;28;20030;-77
2022/06/08 06:49:30;;;;;;;1.52;0.90;;;21.00;99.90;;;;;;5001907;28;20030;-77
2022/06/08 06:51:57;;;;;;;4.40;1.35;;;20.80;99.90;;;;;;5008131;28;20033;-77
2022/06/08 06:54:24;;;;;;;1.10;1.00;;;20.70;99.90;;;;;;5008045;28;20263;-77
2022/06/08 06:56:50;;;;;;;0.95;0.80;;;20.30;99.90;;;;;;4989723;28;20492;-80
2022/06/08 06:59:21;;;;;;;1.10;1.00;;;20.20;99.90;;;;;;4963436;28;20033;-78
2022/06/08 07:01:47;;;;;;;3.15;1.00;;;20.10;99.90;;;;;;5009888;28;20719;-78
2022/06/08 07:04:15;;;;;;;1.58;1.02;;;20.20;99.90;;;;;;4988399;28;20034;-77
2022/06/08 07:06:41;;;;;;;3.22;0.90;;;20.40;99.90;;;;;;5004665;28;20076;-79
2022/06/08 07:09:07;;;;;;;1.65;0.80;;;20.60;99.90;;;;;;4986649;28;20206;-79
2022/06/08 07:11:40;;;;;;;1.98;0.82;;;21.00;99.90;;;;;;4991867;28;20056;-79
2022/06/08 07:14:19;;;;;;;1.58;1.10;;;21.50;99.90;;;;;;5011380;28;20030;-79
2022/06/08 07:16:49;;;;;;;1.50;1.00;;;22.10;99.90;;;;;;5003342;28;20129;-80
2022/06/08 07:19:20;;;;;;;1.48;0.80;;;22.80;99.90;;;;;;5002325;28;20080;-79
2022/06/08 07:21:47;;;;;;;0.75;0.65;;;23.30;99.90;;;;;;4977195;28;20579;-80
2022/06/08 07:24:22;;;;;;;1.52;0.70;;;23.90;99.90;;;;;;5007517;28;20022;-80
2022/06/08 07:26:48;;;;;;;0.60;0.60;;;24.40;98.50;;;;;;4998578;28;20092;-79
2022/06/08 07:29:14;;;;;;;3.03;0.90;;;24.70;94.90;;;;;;4992451;28;20129;-78
2022/06/08 07:31:40;;;;;;;1.10;0.65;;;24.90;95.20;;;;;;5012133;28;20033;-80
2022/06/08 07:34:06;;;;;;;1.50;0.80;;;25.30;91.10;;;;;;5011120;28;20020;-79
2022/06/08 07:36:32;;;;;;;1.95;0.82;;;25.00;89.90;;;;;;5011607;28;20030;-77
2022/06/08 07:38:58;;;;;;;1.00;0.50;;;25.00;90.00;;;;;;5007672;28;20030;-78
2022/06/08 07:41:25;;;;;;;0.75;0.50;;;24.90;91.20;;;;;;5014746;28;20577;-79
2022/06/08 07:43:51;;;;;;;1.42;0.70;;;25.00;90.50;;;;;;5022222;28;20033;-79
2022/06/08 07:46:19;;;;;;;1.85;0.57;;;25.20;90.50;;;;;;5019880;28;20022;-77
2022/06/08 07:51:30;;;;;;;3.60;0.90;;;25.30;81.60;;;;;;5007453;28;20042;-78
2022/06/08 07:53:56;;;;;;;1.48;0.60;;;25.20;84.20;;;;;;5012702;28;20485;-78
2022/06/08 07:56:21;;;;;;;1.23;0.63;;;25.20;85.40;;;;;;5008604;28;20037;-80
2022/06/08 07:58:50;;;;;;;0.57;0.57;;;25.20;83.10;;;;;;4978280;28;20117;-79
2022/06/08 08:01:16;;;;;;;0.95;0.50;;;25.20;84.60;;;;;;4996106;28;20116;-77
2022/06/08 08:03:42;;;;;;;0.60;0.60;;;25.00;86.60;;;;;;5009856;28;20032;-79
2022/06/08 08:06:09;;;;;;;1.83;0.77;;;24.90;85.60;;;;;;5016154;28;20033;-79
2022/06/08 08:08:36;;;;;;;1.35;0.60;;;24.50;87.00;;;;;;5009495;28;20032;-77
2022/06/08 08:11:04;;;;;;;0.82;0.75;;;24.10;86.40;;;;;;4994419;28;20034;-79
2022/06/08 08:13:30;;;;;;;2.28;0.82;;;23.60;87.10;;;;;;5010274;28;20025;-77
2022/06/08 08:15:56;;;;;;;1.25;1.15;;;23.30;92.60;;;;;;4988500;28;20045;-78
2022/06/08 08:18:21;;;;;;;0.75;0.57;;;23.10;90.50;;;;;;5007844;28;20031;-79
2022/06/08 08:20:47;;;;;;;1.85;0.60;;;23.10;89.40;;;;;;5007249;28;20041;-78
2022/06/08 08:23:16;;;;;;;2.42;0.50;;;23.10;90.00;;;;;;5005163;28;20088;-78
2022/06/08 08:25:42;;;;;;;0.68;0.55;;;23.10;90.70;;;;;;5014436;28;20029;-77
2022/06/08 08:28:08;;;;;;;1.38;0.60;;;23.00;89.80;;;;;;5012915;28;20022;-78
2022/06/08 08:30:35;;;;;;;1.25;0.52;;;22.80;89.60;;;;;;5007240;28;20555;-78
2022/06/08 08:33:01;;;;;;;1.65;0.50;;;22.50;90.30;;;;;;5009560;28;20026;-77
2022/06/08 08:35:27;;;;;;;0.80;0.43;;;22.10;90.70;;;;;;5000285;28;20821;-78
2022/06/08 08:37:55;;;;;;;1.65;0.60;;;21.60;84.30;;;;;;5031244;28;20037;-78
2022/06/08 08:40:29;;;;;;;0.80;0.73;;;21.40;90.50;;;;;;5028385;28;20037;-80
2022/06/08 08:42:56;;;;;;;0.93;0.47;;;21.40;92.20;;;;;;5004176;28;20034;-80
2022/06/08 08:45:23;;;;;;;1.23;0.50;;;21.60;92.20;;;;;;5006385;28;20023;-80
2022/06/08 08:47:51;;;;;;;1.67;0.60;;;21.70;86.20;;;;;;4996904;28;20117;-80
2022/06/08 08:50:53;;;;;;;1.80;0.73;;;21.40;82.90;;;;;;5003507;28;20026;-77
2022/06/08 08:53:30;;;;;;;1.13;0.40;;;21.40;90.80;;;;;;5021724;28;20042;-78
2022/06/08 08:56:08;;;;;;;1.35;0.50;;;21.50;91.70;;;;;;5012790;28;20075;-78
2022/06/08 08:58:37;;;;;;;0.80;0.45;;;21.50;90.70;;;;;;5005420;28;20058;-78
2022/06/08 09:01:18;;;;;;;1.17;0.40;;;21.40;90.70;;;;;;5019814;28;20029;-78
2022/06/08 09:03:58;;;;;;;1.65;0.55;;;21.40;90.10;;;;;;4991516;28;20480;-78
2022/06/08 09:06:31;;;;;;;1.98;0.73;;;21.30;91.00;;;;;;4994552;28;20493;-78
2022/06/08 09:09:02;;;;;;;0.30;0.30;;;21.40;91.20;;;;;;4991612;28;20018;-78
2022/06/08 09:11:35;;;;;;;0.93;0.50;;;21.60;91.50;;;;;;4999561;28;20050;-78
2022/06/08 09:14:15;;;;;;;0.63;0.40;;;21.80;90.20;;;;;;5010185;28;20022;-78
2022/06/08 09:16:45;;;;;;;0.50;0.50;;;22.10;88.30;;;;;;5005460;28;20129;-78
2022/06/08 09:19:32;;;;;;;1.73;0.60;;;22.40;86.00;;;;;;5003285;28;20053;-79
2022/06/08 09:22:04;;;;;;;0.30;0.30;;;22.50;85.50;;;;;;5010091;28;20058;-78
2022/06/08 09:24:32;;;;;;;2.88;0.60;;;22.60;86.60;;;;;;5021164;28;20153;-78
2022/06/08 09:27:22;;;;;;;0.45;0.40;;;22.70;83.30;;;;;;4995993;28;20417;-78
2022/06/08 09:30:06;;;;;;;2.05;0.77;;;22.60;82.80;;;;;;5001139;28;20064;-78
2022/06/08 09:32:49;;;;;;;1.05;0.60;;;22.50;82.20;;;;;;5015430;28;20118;-77
2022/06/08 09:35:20;;;;;;;1.02;0.60;;;22.40;84.60;;;;;;5012425;28;20030;-78
2022/06/08 09:37:48;;;;;;;4.00;0.57;;;22.40;82.30;;;;;;5007980;28;20044;-79
2022/06/08 09:40:36;;;;;;;1.98;0.70;;;22.50;82.40;;;;;;4996004;28;20030;-78
2022/06/08 09:43:24;;;;;;;2.20;0.50;;;22.50;74.60;;;;;;5015434;28;20025;-78
2022/06/08 09:45:49;;;;;;;1.30;0.68;;;22.50;83.50;;;;;;4995357;28;20032;-79
2022/06/08 09:51:29;;;;;;;0.70;0.50;;;22.50;78.70;;;;;;5018194;28;20045;-78
2022/06/08 09:54:23;;;;;;;1.65;0.57;;;22.60;85.40;;;;;;5012985;28;20064;-78
2022/06/08 09:57:02;;;;;;;2.08;0.50;;;22.60;81.20;;;;;;5016778;28;20061;-78
2022/06/08 09:59:35;;;;;;;1.08;0.70;;;22.60;79.50;;;;;;5009012;28;20026;-78
2022/06/08 10:02:15;;;;;;;0.90;0.73;;;22.30;77.70;;;;;;5007673;28;20472;-78
2022/06/08 10:04:58;;;;;;;3.28;0.65;;;22.20;80.30;;;;;;5015033;28;20076;-77
2022/06/08 10:07:35;;;;;;;0.95;0.50;;;22.20;76.70;;;;;;5013009;28;20505;-78
2022/06/08 10:10:24;;;;;;;0.68;0.60;;;22.20;84.20;;;;;;5009938;28;20030;-78
2022/06/08 10:12:59;;;;;;;1.42;0.50;;;22.30;86.60;;;;;;5019403;28;20038;-79
2022/06/08 10:15:31;;;;;;;;;;;22.40;86.80;;;;;;4999543;28;20085;-77
2022/06/08 10:18:13;;;;;;;1.67;0.60;;;22.60;79.10;;;;;;5013580;28;20011;-78
2022/06/08 10:20:44;;;;;;;1.00;0.60;;;22.40;75.90;;;;;;5018187;28;20029;-79
2022/06/08 10:23:34;;;;;;;3.50;0.70;;;22.50;78.00;;;;;;5007872;28;20530;-76
2022/06/08 10:26:22;;;;;;;0.77;0.55;;;22.40;74.80;;;;;;5009048;28;20036;-78
2022/06/08 10:28:59;;;;;;;0.63;0.50;;;22.40;80.60;;;;;;5010216;28;20451;-78
2022/06/08 10:31:57;;;;;;;3.15;0.50;;;22.50;83.00;;;;;;5015316;28;20040;-78
2022/06/08 10:34:33;;;;;;;0.65;0.50;;;22.60;82.50;;;;;;4993351;28;20069;-77
2022/06/08 10:37:10;;;;;;;1.02;0.65;;;22.50;75.50;;;;;;5017137;28;20033;-77
2022/06/08 10:39:37;;;;;;;2.70;0.60;;;22.40;80.50;;;;;;4993990;28;20068;-78
2022/06/08 10:44:59;;;;;;;2.25;0.73;;;22.10;73.80;;;;;;5012347;28;20054;-77
2022/06/08 10:47:34;;;;;;;1.05;0.63;;;22.00;80.30;;;;;;5063645;28;20088;-77
2022/06/08 10:49:59;;;;;;;1.05;0.63;;;22.10;83.00;;;;;;5012996;28;20031;-78
2022/06/08 10:52:40;;;;;;;0.95;0.63;;;22.20;83.90;;;;;;5020917;28;20080;-77
2022/06/08 10:55:17;;;;;;;1.92;0.50;;;22.40;81.20;;;;;;5008673;28;20033;-78
2022/06/08 10:57:49;;;;;;;2.95;0.50;;;22.40;77.60;;;;;;4997699;28;20032;-78
2022/06/08 11:00:21;;;;;;;1.70;0.70;;;22.50;80.00;;;;;;5010931;28;20073;-77
2022/06/08 11:02:52;;;;;;;1.83;0.50;;;22.50;80.00;;;;;;5007623;28;20037;-77
2022/06/08 11:05:28;;;;;;;1.13;0.40;;;22.60;81.30;;;;;;4999873;28;20380;-77
2022/06/08 11:08:04;;;;;;;1.55;0.50;;;22.60;82.70;;;;;;5008370;28;20029;-78
2022/06/08 11:13:26;;;;;;;2.10;0.50;;;22.50;80.90;;;;;;5011788;28;20412;-77
2022/06/08 11:16:24;;;;;;;0.63;0.35;;;22.40;77.80;;;;;;5011120;28;20026;-78
2022/06/08 11:19:10;;;;;;;2.00;0.57;;;22.10;75.30;;;;;;5029163;28;20490;-77
2022/06/08 11:21:44;;;;;;;2.80;0.60;;;22.10;77.50;;;;;;5008822;28;20030;-77
2022/06/08 11:24:24;;;;;;;0.55;0.55;;;22.10;82.40;;;;;;4992818;28;20581;-77
2022/06/08 11:27:22;;;;;;;4.32;0.80;;;22.30;78.90;;;;;;5013800;28;20140;-77
2022/06/08 11:30:01;;;;;;;1.65;0.70;;;22.40;81.60;;;;;;5010048;28;20469;-77
2022/06/08 11:32:33;;;;;;;1.13;0.50;;;22.50;76.80;;;;;;5014731;28;20033;-77
2022/06/08 11:35:21;;;;;;;1.85;0.80;;;22.70;81.10;;;;;;5011748;28;20061;-78
2022/06/08 11:38:37;;;;;;;2.45;0.65;;;22.90;80.20;;;;;;4985249;28;20040;-77
2022/06/08 11:41:33;;;;;;;1.10;0.60;;;23.00;83.30;;;;;;4979408;28;20041;-77
2022/06/08 11:44:19;;;;;;;1.45;0.68;;;23.00;82.60;;;;;;4991684;28;20045;-77
2022/06/08 11:46:48;;;;;;;;;;;22.80;82.60;;;;;;5011372;28;20061;-79
2022/06/08 11:50:00;;;;;;;0.82;0.60;;;22.70;85.90;;;;;;5012314;28;19909;-77
2022/06/08 11:52:32;;;;;;;0.70;0.50;;;22.60;83.70;;;;;;4959154;28;20089;-78
2022/06/08 11:55:10;;;;;;;1.65;0.63;;;22.60;80.00;;;;;;5001539;28;20069;-77
2022/06/08 11:58:00;;;;;;;1.25;0.73;;;22.60;82.90;;;;;;5010298;28;20135;-77
2022/06/08 12:00:31;;;;;;;0.60;0.60;;;22.50;86.00;;;;;;5009122;28;20034;-77
2022/06/08 12:03:20;;;;;;;0.50;0.50;;;22.50;86.20;;;;;;5031421;28;20137;-77
2022/06/08 12:05:50;;;;;;;1.58;0.55;;;22.60;88.40;;;;;;5011027;28;20124;-77
2022/06/08 12:08:51;;;;;;;1.20;0.65;;;22.70;81.60;;;;;;5000791;28;20026;-77
2022/06/08 12:11:20;;;;;;;3.58;0.85;;;22.70;85.40;;;;;;5012179;28;20093;-77
2022/06/08 12:14:03;;;;;;;0.80;0.63;;;22.50;83.10;;;;;;4992631;28;20037;-77
2022/06/08 12:16:34;;;;;;;0.85;0.63;;;22.50;85.40;;;;;;4996285;28;20116;-78
2022/06/08 12:19:13;;;;;;;0.98;0.70;;;22.40;85.40;;;;;;5016269;28;20033;-76
2022/06/08 12:21:46;;;;;;;1.25;0.70;;;22.20;82.80;;;;;;5010643;28;20405;-78
2022/06/08 12:24:11;;;;;;;0.93;0.70;;;22.10;80.80;;;;;;5007360;28;20508;-76
2022/06/08 12:27:00;;;;;;;0.82;0.70;;;22.10;87.00;;;;;;5013247;28;20100;-77
2022/06/08 12:29:29;;;;;;;1.92;0.80;;;22.20;87.50;;;;;;5013142;28;20125;-77
2022/06/08 12:32:25;;;;;;;2.65;1.00;;;22.30;84.80;;;;;;5008884;28;20111;-77
2022/06/08 12:35:13;;;;;;;2.88;0.80;;;22.30;82.00;;;;;;4999479;28;20057;-78
2022/06/08 12:37:40;;;;;;;2.50;0.98;;;22.40;80.50;;;;;;5000209;28;20064;-76
2022/06/08 12:40:15;;;;;;;0.65;0.65;;;22.50;82.20;;;;;;5010048;28;20018;-76
2022/06/08 12:42:59;;;;;;;1.55;0.73;;;22.60;81.50;;;;;;5012097;28;20058;-76
2022/06/08 12:45:38;;;;;;;2.25;0.80;;;22.70;86.50;;;;;;5010447;28;20030;-76
2022/06/08 12:48:21;;;;;;;1.30;0.80;;;22.90;82.00;;;;;;5013559;28;20037;-77
2022/06/08 12:50:47;;;;;;;1.48;1.08;;;23.00;84.30;;;;;;5005920;28;20112;-76
2022/06/08 12:53:13;;;;;;;1.65;1.00;;;23.00;76.10;;;;;;4988994;28;20519;-76
2022/06/08 12:55:40;;;;;;;0.68;0.60;;;22.90;78.60;;;;;;4989383;28;20041;-77
2022/06/08 12:58:08;;;;;;;2.78;0.80;;;22.90;79.90;;;;;;5007757;28;20048;-78
2022/06/08 13:00:36;;;;;;;1.40;1.15;;;22.90;83.50;;;;;;5007587;28;20554;-78
2022/06/08 13:03:18;;;;;;;1.35;0.85;;;22.80;80.30;;;;;;4996753;28;20041;-77
2022/06/08 13:05:44;;;;;;;1.90;0.77;;;22.70;82.40;;;;;;5009836;28;20026;-78
2022/06/08 13:08:20;;;;;;;4.78;1.00;;;22.60;79.10;;;;;;5002925;28;20060;-77
2022/06/08 13:10:51;;;;;;;1.30;0.85;;;22.60;78.10;;;;;;5011657;28;20037;-78
2022/06/08 13:13:25;;;;;;;1.42;0.85;;;22.70;75.50;;;;;;5025606;28;20034;-77
2022/06/08 13:15:51;;;;;;;2.63;1.05;;;22.70;76.10;;;;;;5010196;28;20061;-78
2022/06/08 13:18:20;;;;;;;1.60;0.70;;;22.50;73.90;;;;;;4971263;28;20052;-77
2022/06/08 13:20:47;;;;;;;1.95;1.00;;;22.40;77.70;;;;;;5005555;28;20118;-77
2022/06/08 13:23:15;;;;;;;2.88;0.70;;;22.50;74.40;;;;;;5010279;28;20080;-77
2022/06/08 13:25:42;;;;;;;2.13;0.90;;;22.50;72.30;;;;;;5009287;28;20465;-77
2022/06/08 13:28:16;;;;;;;0.88;0.70;;;22.30;73.90;;;;;;5007884;28;20137;-77
2022/06/08 13:30:44;;;;;;;0.60;0.60;;;22.20;72.90;;;;;;5002659;28;20030;-77
2022/06/08 13:33:56;;;;;;;2.30;0.90;;;22.10;74.70;;;;;;5004435;28;20044;-78